Time;durP1;ratioP1;P1;durP2;ratioP2;P2;SDS_P1;SDS_P2;PMS_P1;PMS_P2;Temp;Humidity;BMP_temperature;BMP_pressure;BME280_temperature;BME280_humidity;BME280_pressure;Samples;Min_cycle;Max_cycle;Signal;HPM_P1;HPM_P2
2021/07/03 10:22:44;;;;;;;3.63;3.33;;;;;;;21.16;64.00;100489.75;5035995;23;20708;-73
2021/07/03 10:25:10;;;;;;;4.03;3.73;;;;;;;21.04;66.22;100494.41;5002696;28;20667;-73
2021/07/03 10:27:36;;;;;;;4.40;4.03;;;;;;;21.03;66.55;100492.00;5010072;28;20219;-73
2021/07/03 10:30:05;;;;;;;3.20;3.00;;;;;;;21.12;65.31;100481.41;4998270;28;20180;-74
2021/07/03 10:32:36;;;;;;;4.87;3.70;;;;;;;21.26;64.94;100478.75;4999281;28;20186;-73
2021/07/03 10:35:18;;;;;;;4.37;3.17;;;;;;;21.49;66.73;100486.91;4993111;28;20259;-73
2021/07/03 10:37:43;;;;;;;3.47;3.20;;;;;;;21.44;64.99;100480.91;4992613;28;20209;-73
2021/07/03 10:40:20;;;;;;;3.37;3.10;;;;;;;21.67;66.48;100484.28;4991693;28;20189;-73
2021/07/03 10:42:48;;;;;;;4.47;4.07;;;;;;;21.55;62.47;100482.59;4991457;28;20185;-73
2021/07/03 10:45:16;;;;;;;3.67;3.37;;;;;;;21.54;63.82;100481.00;4992822;28;20208;-77
2021/07/03 10:47:42;;;;;;;2.87;2.67;;;;;;;21.53;63.38;100484.97;4992984;28;20645;-75
2021/07/03 10:50:26;;;;;;;3.37;3.07;;;;;;;21.57;61.31;100477.47;4992715;28;20588;-73
2021/07/03 10:52:53;;;;;;;3.20;3.00;;;;;;;21.61;61.60;100474.69;4996916;28;20205;-77
2021/07/03 10:55:29;;;;;;;2.97;2.67;;;;;;;21.87;60.41;100466.16;5001152;28;20184;-73
2021/07/03 10:57:54;;;;;;;3.47;3.17;;;;;;;21.97;61.31;100462.63;5001414;28;20239;-73
2021/07/03 11:00:25;;;;;;;3.13;2.93;;;;;;;22.06;63.07;100459.53;5003188;28;20189;-73
2021/07/03 11:02:51;;;;;;;2.73;2.53;;;;;;;22.25;60.89;100462.00;5009863;28;20172;-73
2021/07/03 11:05:17;;;;;;;2.30;2.10;;;;;;;22.55;59.37;100472.88;5011602;28;20201;-73
2021/07/03 11:07:46;;;;;;;2.00;1.80;;;;;;;22.66;56.92;100463.78;5011737;28;20185;-73
2021/07/03 11:10:17;;;;;;;2.73;2.53;;;;;;;22.46;56.89;100457.75;5009081;28;20186;-73
2021/07/03 11:12:51;;;;;;;2.60;2.40;;;;;;;22.48;58.06;100445.03;5011496;28;20193;-73
2021/07/03 11:15:25;;;;;;;2.60;2.43;;;;;;;22.21;59.05;100450.06;5009605;28;20183;-74
2021/07/03 11:17:51;;;;;;;3.33;3.03;;;;;;;22.39;56.44;100452.94;5001627;28;20212;-72
2021/07/03 11:20:25;;;;;;;2.97;2.77;;;;;;;22.09;57.78;100438.47;4993170;28;20185;-73
2021/07/03 11:22:51;;;;;;;3.00;2.80;;;;;;;21.77;56.67;100446.59;4991747;28;20188;-73
2021/07/03 11:25:31;;;;;;;2.93;2.73;;;;;;;21.92;58.63;100442.72;4999561;28;20234;-73
2021/07/03 11:28:04;;;;;;;2.47;2.33;;;;;;;22.10;60.13;100440.88;5001628;28;20655;-73
2021/07/03 11:30:30;;;;;;;2.60;2.40;;;;;;;22.40;59.19;100443.38;5001365;28;20179;-74
2021/07/03 11:32:56;;;;;;;2.73;2.53;;;;;;;21.88;56.73;100439.94;5011687;28;20598;-73
2021/07/03 11:35:23;;;;;;;2.77;2.63;;;;;;;21.71;56.91;100435.06;5003052;28;20261;-74
2021/07/03 11:37:49;;;;;;;2.63;2.43;;;;;;;21.96;56.25;100433.22;4995223;28;20184;-73
2021/07/03 11:40:23;;;;;;;3.00;2.80;;;;;;;22.39;55.07;100433.44;4991902;28;20236;-73
2021/07/03 11:42:51;;;;;;;2.47;2.37;;;;;;;22.82;55.08;100433.56;4991927;28;20247;-73
2021/07/03 11:45:24;;;;;;;2.60;2.43;;;;;;;22.89;55.69;100430.84;4991655;28;20652;-73
2021/07/03 11:47:53;;;;;;;2.60;2.40;;;;;;;22.96;55.45;100424.47;5000810;28;20199;-73
2021/07/03 11:50:21;;;;;;;2.70;2.50;;;;;;;22.81;54.46;100424.41;5010746;28;20734;-73
2021/07/03 11:52:47;;;;;;;2.87;2.67;;;;;;;22.42;56.69;100415.16;5011121;28;20173;-73
2021/07/03 11:55:15;;;;;;;2.67;2.47;;;;;;;22.37;58.08;100407.97;5010138;28;20191;-73
2021/07/03 11:57:42;;;;;;;2.17;1.90;;;;;;;22.62;58.62;100408.06;5011431;28;20605;-73
2021/07/03 12:00:14;;;;;;;2.97;2.77;;;;;;;22.61;57.01;100403.69;5009879;28;20172;-73
2021/07/03 12:02:41;;;;;;;4.07;2.60;;;;;;;22.83;54.41;100399.78;5011078;28;20180;-73
2021/07/03 12:05:07;;;;;;;2.60;2.40;;;;;;;22.52;57.80;100397.69;5011369;28;20212;-73
2021/07/03 12:07:35;;;;;;;2.70;2.50;;;;;;;22.39;56.35;100390.88;5011150;28;20234;-73
2021/07/03 12:10:04;;;;;;;2.43;2.23;;;;;;;22.66;56.31;100394.16;5011074;28;20199;-73
2021/07/03 12:12:30;;;;;;;2.57;2.47;;;;;;;23.03;53.10;100391.84;5009599;28;20713;-74
2021/07/03 12:15:06;;;;;;;2.50;2.30;;;;;;;22.98;54.37;100395.00;5011091;28;20173;-74
2021/07/03 12:17:31;;;;;;;3.03;2.77;;;;;;;23.09;52.77;100378.31;5010903;28;20583;-73
2021/07/03 12:20:05;;;;;;;2.23;2.10;;;;;;;23.04;53.44;100382.28;5011263;28;20214;-74
2021/07/03 12:22:30;;;;;;;2.83;2.63;;;;;;;23.29;53.57;100382.31;5010737;28;20178;-74
2021/07/03 12:24:55;;;;;;;2.47;2.27;;;;;;;23.52;54.19;100383.84;5010964;28;20532;-74
2021/07/03 12:27:24;;;;;;;2.30;2.20;;;;;;;23.84;51.40;100378.22;5011023;28;20704;-74
2021/07/03 12:29:49;;;;;;;2.20;2.10;;;;;;;23.63;52.76;100382.66;5009490;28;20175;-73
2021/07/03 12:32:15;;;;;;;2.47;2.27;;;;;;;23.46;52.41;100389.06;5010832;28;20183;-74
2021/07/03 12:34:41;;;;;;;2.93;2.70;;;;;;;23.07;51.58;100383.47;5010362;28;20653;-73
2021/07/03 12:37:12;;;;;;;2.27;2.13;;;;;;;23.05;54.51;100377.50;5010939;28;20251;-74
2021/07/03 12:39:47;;;;;;;2.37;2.17;;;;;;;23.18;52.02;100375.94;5010875;28;20234;-76
2021/07/03 12:42:16;;;;;;;2.43;2.23;;;;;;;23.06;52.48;100379.09;5010622;28;20183;-73
2021/07/03 12:44:47;;;;;;;2.33;2.23;;;;;;;23.36;54.93;100371.13;5011084;28;20417;-73
2021/07/03 12:47:18;;;;;;;3.33;2.60;;;;;;;23.23;52.50;100369.94;5010774;28;20227;-74
2021/07/03 12:49:55;;;;;;;2.47;2.27;;;;;;;23.01;53.68;100373.94;5009536;28;20176;-74
2021/07/03 12:52:21;;;;;;;2.67;2.47;;;;;;;22.94;52.89;100365.56;5010709;28;20176;-74
2021/07/03 12:54:55;;;;;;;2.07;1.93;;;;;;;23.26;51.97;100373.91;5010586;28;20258;-73
2021/07/03 12:57:20;;;;;;;2.87;2.67;;;;;;;23.37;56.11;100369.13;5010682;28;20168;-73
2021/07/03 12:59:47;;;;;;;2.83;2.40;;;;;;;22.91;53.19;100369.16;5010742;28;20178;-73
2021/07/03 13:02:15;;;;;;;2.57;2.37;;;;;;;22.57;54.16;100366.69;5013228;28;20323;-73
2021/07/03 13:04:42;;;;;;;2.70;2.50;;;;;;;23.02;54.11;100359.59;5014772;28;20198;-74
2021/07/03 13:07:07;;;;;;;2.53;2.43;;;;;;;23.61;53.51;100348.81;5014327;28;20541;-74
2021/07/03 13:09:33;;;;;;;2.70;2.50;;;;;;;23.89;51.91;100356.28;5014480;28;20191;-74
2021/07/03 13:11:59;;;;;;;2.70;2.50;;;;;;;23.90;51.64;100348.72;5014347;28;20177;-74
2021/07/03 13:14:24;;;;;;;2.47;2.27;;;;;;;23.78;50.99;100349.16;5014320;28;20180;-74
2021/07/03 13:16:49;;;;;;;2.43;2.23;;;;;;;23.86;51.82;100348.72;5014415;28;20173;-74
2021/07/03 13:19:15;;;;;;;2.30;2.13;;;;;;;24.19;51.41;100402.44;5014343;28;20173;-74
2021/07/03 13:21:40;;;;;;;2.37;2.20;;;;;;;23.95;52.14;100343.50;5013646;28;20307;-74
2021/07/03 13:24:06;;;;;;;2.50;2.40;;;;;;;23.54;52.05;100334.84;5013957;28;20534;-74
2021/07/03 13:26:31;;;;;;;3.70;2.73;;;;;;;23.65;52.84;100334.84;5014520;28;20173;-74
2021/07/03 13:28:56;;;;;;;3.20;3.00;;;;;;;23.12;54.26;100360.78;5014164;28;20173;-74
2021/07/03 13:31:22;;;;;;;2.63;2.43;;;;;;;23.06;54.28;100360.38;5013951;28;20184;-74
2021/07/03 13:33:47;;;;;;;3.87;2.87;;;;;;;23.71;54.07;100358.31;5013179;28;20173;-74
2021/07/03 13:36:13;;;;;;;2.50;2.30;;;;;;;24.01;51.12;100360.63;5013904;28;20223;-74
2021/07/03 13:38:39;;;;;;;2.60;2.23;;;;;;;23.88;54.49;100362.28;5013935;28;20184;-74
2021/07/03 13:41:05;;;;;;;2.43;2.23;;;;;;;24.10;52.22;100368.56;5013887;28;20540;-73
2021/07/03 13:43:31;;;;;;;2.73;2.53;;;;;;;24.09;54.36;100367.78;4998850;28;20243;-74
2021/07/03 13:45:56;;;;;;;2.50;2.30;;;;;;;24.20;50.34;100356.56;4994148;28;20240;-73
2021/07/03 13:48:22;;;;;;;2.40;2.30;;;;;;;24.29;52.60;100360.50;4992771;28;20248;-73
2021/07/03 13:50:49;;;;;;;2.97;2.40;;;;;;;24.53;52.22;100377.56;4994025;28;20185;-73
2021/07/03 13:53:14;;;;;;;2.03;1.93;;;;;;;24.42;50.53;100357.25;4994362;28;20177;-74
2021/07/03 13:55:40;;;;;;;3.90;2.13;;;;;;;24.21;51.96;100353.38;5008748;28;20683;-74
2021/07/03 13:58:05;;;;;;;2.60;2.40;;;;;;;24.03;50.56;100439.97;5014134;28;20555;-74
2021/07/03 14:00:31;;;;;;;3.13;2.83;;;;;;;23.65;54.15;100402.59;5017747;28;20244;-73
2021/07/03 14:02:56;;;;;;;2.73;2.53;;;;;;;23.54;53.24;100331.25;5021348;28;20181;-73
2021/07/03 14:05:22;;;;;;;3.07;2.87;;;;;;;23.58;56.35;100346.00;5016723;28;20360;-73
2021/07/03 14:07:48;;;;;;;3.00;2.77;;;;;;;23.56;51.14;100343.59;5013595;28;20258;-73
2021/07/03 14:10:13;;;;;;;2.53;2.33;;;;;;;23.62;55.66;100344.81;5006724;28;20271;-73
2021/07/03 14:12:38;;;;;;;2.73;2.53;;;;;;;23.62;54.10;100344.81;5011093;28;20541;-72
2021/07/03 14:15:06;;;;;;;2.90;2.60;;;;;;;23.64;52.22;100344.41;5013409;28;20267;-72
2021/07/03 14:17:33;;;;;;;2.40;2.30;;;;;;;23.79;54.24;100343.16;5009378;28;20184;-73
2021/07/03 14:19:58;;;;;;;2.50;2.30;;;;;;;24.03;53.62;100342.28;4993819;28;20169;-73
2021/07/03 14:22:24;;;;;;;2.97;2.77;;;;;;;24.26;50.40;100327.00;4993575;28;20224;-72
2021/07/03 14:24:50;;;;;;;2.63;2.43;;;;;;;24.53;52.71;100367.19;4993402;28;20255;-72
2021/07/03 14:27:15;;;;;;;2.40;2.30;;;;;;;24.75;53.17;100337.09;4993379;28;20177;-74
2021/07/03 14:29:41;;;;;;;2.50;2.30;;;;;;;24.45;49.64;100332.13;4993278;28;20255;-72
2021/07/03 14:32:06;;;;;;;3.00;2.80;;;;;;;24.38;50.88;100328.56;4992930;28;20184;-73
2021/07/03 14:34:32;;;;;;;3.10;2.80;;;;;;;24.71;51.23;100327.13;4994350;28;20184;-72
2021/07/03 14:36:57;;;;;;;2.40;2.20;;;;;;;25.12;51.47;100319.63;5012904;28;20218;-73
2021/07/03 14:39:22;;;;;;;2.83;2.63;;;;;;;25.14;50.33;100320.00;5012814;28;20583;-74
2021/07/03 14:41:48;;;;;;;2.67;2.50;;;;;;;24.87;49.36;100319.81;5011040;28;20181;-73
2021/07/03 14:44:13;;;;;;;2.23;2.13;;;;;;;25.19;51.72;100316.78;5011280;28;20616;-75
2021/07/03 14:46:41;;;;;;;4.53;2.60;;;;;;;25.13;45.92;100315.63;5009303;28;20185;-74
2021/07/03 14:49:07;;;;;;;2.03;1.93;;;;;;;25.21;48.43;100310.78;5001707;28;20673;-74
2021/07/03 14:51:33;;;;;;;3.43;2.57;;;;;;;25.27;47.25;100308.31;4991382;28;20686;-74
2021/07/03 14:53:58;;;;;;;2.40;2.20;;;;;;;25.17;48.60;100313.63;4992610;28;20252;-73
2021/07/03 14:56:24;;;;;;;2.47;2.33;;;;;;;25.57;49.70;100308.38;4992862;28;20721;-74
2021/07/03 14:58:49;;;;;;;2.67;2.47;;;;;;;25.53;47.83;100316.03;4991481;28;20538;-74
2021/07/03 15:01:14;;;;;;;2.53;2.33;;;;;;;25.52;46.04;100314.44;4992416;28;20189;-73
2021/07/03 15:03:42;;;;;;;2.80;2.60;;;;;;;25.09;49.36;100312.09;4992574;28;20181;-74
2021/07/03 15:06:08;;;;;;;3.00;2.80;;;;;;;25.08;49.74;100299.31;4990984;28;20212;-75
2021/07/03 15:08:33;;;;;;;2.73;2.53;;;;;;;25.53;49.22;100296.44;5009781;28;20207;-74
2021/07/03 15:10:58;;;;;;;3.07;2.80;;;;;;;24.92;48.16;100290.66;5011598;28;20899;-74
2021/07/03 15:13:24;;;;;;;2.57;2.37;;;;;;;25.62;49.12;100302.34;5006413;28;20191;-75
2021/07/03 15:15:49;;;;;;;2.77;2.57;;;;;;;25.99;47.02;100295.91;5011501;28;20193;-73
2021/07/03 15:18:14;;;;;;;3.10;2.80;;;;;;;26.03;46.04;100293.06;5008075;28;20177;-73
2021/07/03 15:20:40;;;;;;;2.63;2.40;;;;;;;25.67;46.29;100290.69;4999314;28;20611;-73
2021/07/03 15:23:05;;;;;;;2.73;2.53;;;;;;;25.77;44.43;100289.00;5000647;28;20588;-73
2021/07/03 15:25:30;;;;;;;2.47;2.37;;;;;;;25.35;47.20;100293.84;5000084;28;20212;-73
2021/07/03 15:27:57;;;;;;;3.23;2.17;;;;;;;25.58;47.06;100286.78;5001853;28;20177;-73
2021/07/03 15:30:24;;;;;;;2.47;2.30;;;;;;;25.39;44.96;100277.03;5002112;28;20185;-74
2021/07/03 15:32:54;;;;;;;2.57;2.40;;;;;;;25.44;48.01;100287.75;4999130;28;20189;-71
2021/07/03 15:35:20;;;;;;;3.03;2.33;;;;;;;25.91;43.40;100286.03;5001586;28;20179;-71
2021/07/03 15:37:47;;;;;;;2.27;2.17;;;;;;;26.19;45.51;100286.88;5002315;28;20169;-72
2021/07/03 15:40:12;;;;;;;2.70;2.50;;;;;;;26.59;44.17;100283.06;5000308;28;20177;-71
2021/07/03 15:42:38;;;;;;;2.57;2.37;;;;;;;26.65;42.84;100280.56;5001262;28;20177;-71
2021/07/03 15:45:05;;;;;;;2.47;2.23;;;;;;;26.41;42.49;100276.94;5008157;28;20270;-71
2021/07/03 15:47:31;;;;;;;3.53;2.23;;;;;;;25.35;43.62;100270.69;5011571;28;20263;-71
2021/07/03 15:49:56;;;;;;;2.17;2.07;;;;;;;25.55;44.40;100270.84;5011384;28;20275;-73
2021/07/03 15:52:21;;;;;;;2.40;2.30;;;;;;;25.94;42.73;100268.38;5011167;28;20247;-73
2021/07/03 15:54:47;;;;;;;2.07;1.97;;;;;;;25.88;41.94;100323.25;5011712;28;20184;-73
2021/07/03 15:57:12;;;;;;;2.63;2.43;;;;;;;26.12;43.40;100284.16;5002623;28;20181;-73
2021/07/03 15:59:38;;;;;;;2.80;2.60;;;;;;;26.51;42.27;100275.19;5000777;28;20180;-71
2021/07/03 16:02:05;;;;;;;2.60;2.40;;;;;;;26.86;41.38;100285.03;5001636;28;20553;-71
2021/07/03 16:04:31;;;;;;;2.27;2.07;;;;;;;26.83;41.52;100280.28;5002948;28;20211;-71
2021/07/03 16:06:56;;;;;;;2.83;2.63;;;;;;;27.31;42.85;100273.44;5010944;28;20544;-71
2021/07/03 16:09:21;;;;;;;2.77;2.57;;;;;;;27.26;41.83;100269.91;5009481;28;20186;-72
2021/07/03 16:11:47;;;;;;;2.60;2.40;;;;;;;26.96;40.77;100270.81;5010564;28;20226;-70
2021/07/03 16:14:13;;;;;;;2.57;2.37;;;;;;;27.48;42.56;100264.66;5010924;28;20259;-70
2021/07/03 16:16:38;;;;;;;2.63;2.43;;;;;;;27.32;42.83;100266.59;5009488;28;20181;-73
2021/07/03 16:19:04;;;;;;;3.07;2.87;;;;;;;26.91;40.16;100259.31;5010118;28;20636;-74
2021/07/03 16:21:30;;;;;;;2.40;2.30;;;;;;;27.15;42.03;100255.28;5002670;28;20185;-74
2021/07/03 16:23:55;;;;;;;2.70;2.53;;;;;;;27.62;41.03;100257.16;5010267;28;20184;-73
2021/07/03 16:26:20;;;;;;;3.87;2.53;;;;;;;27.71;39.21;100261.03;5009242;28;20204;-75
2021/07/03 16:28:46;;;;;;;2.23;2.13;;;;;;;28.05;39.85;100262.69;5002219;28;20643;-74
2021/07/03 16:31:11;;;;;;;2.63;2.43;;;;;;;28.16;39.72;100257.63;5005719;28;20185;-75
2021/07/03 16:33:36;;;;;;;2.80;2.60;;;;;;;28.34;39.33;100251.63;5002323;28;20181;-74
2021/07/03 16:36:02;;;;;;;2.70;2.50;;;;;;;27.67;38.72;100248.28;5010237;28;20252;-74
2021/07/03 16:38:27;;;;;;;2.43;2.23;;;;;;;28.03;38.94;100242.69;5008609;28;20279;-74
2021/07/03 16:40:53;;;;;;;2.57;2.47;;;;;;;27.84;39.35;100244.31;5008198;28;20220;-73
2021/07/03 16:43:18;;;;;;;2.67;2.47;;;;;;;27.43;39.49;100239.91;5010876;28;20569;-73
2021/07/03 16:45:44;;;;;;;2.13;2.03;;;;;;;27.76;39.38;100248.47;5012500;28;20208;-74
2021/07/03 16:48:10;;;;;;;1.87;1.77;;;;;;;28.21;38.65;100247.88;5006306;28;20191;-74
2021/07/03 16:50:35;;;;;;;2.50;2.30;;;;;;;27.79;37.57;100244.81;5006093;28;20174;-74
2021/07/03 16:53:00;;;;;;;2.20;2.10;;;;;;;27.57;38.26;100244.44;5000933;28;20188;-71
2021/07/03 16:55:26;;;;;;;2.57;2.37;;;;;;;27.82;39.27;100246.75;5001081;28;20187;-70
2021/07/03 16:57:51;;;;;;;2.37;2.27;;;;;;;27.86;39.95;100242.63;5005400;28;20204;-69
2021/07/03 17:00:17;;;;;;;2.10;2.00;;;;;;;28.01;39.39;100222.66;5006509;28;20184;-72
2021/07/03 17:02:42;;;;;;;2.33;2.23;;;;;;;27.63;38.46;100234.31;5009346;28;20630;-71
2021/07/03 17:05:08;;;;;;;2.60;2.40;;;;;;;27.54;39.71;100232.06;4996652;28;20204;-70
2021/07/03 17:07:34;;;;;;;2.50;2.30;;;;;;;27.74;39.66;100237.69;5013775;28;20181;-71
2021/07/03 17:09:59;;;;;;;2.40;2.20;;;;;;;27.47;38.88;100237.03;5006648;28;20183;-70
2021/07/03 17:12:24;;;;;;;2.50;2.30;;;;;;;27.10;39.35;100235.38;5013132;28;20187;-73
2021/07/03 17:14:50;;;;;;;2.23;2.03;;;;;;;26.90;41.29;100238.09;5013519;28;20172;-71
2021/07/03 17:17:15;;;;;;;2.30;2.10;;;;;;;26.60;40.08;100227.78;5013473;28;20172;-70
2021/07/03 17:19:40;;;;;;;2.57;2.37;;;;;;;26.65;41.20;100219.72;4996472;28;20220;-70
2021/07/03 17:22:06;;;;;;;2.30;2.10;;;;;;;26.94;39.87;100230.41;4993442;28;20271;-73
2021/07/03 17:24:31;;;;;;;2.30;2.20;;;;;;;27.21;39.18;100222.72;4995583;28;20216;-71
2021/07/03 17:26:58;;;;;;;2.23;2.00;;;;;;;27.29;38.30;100226.16;5005131;28;20300;-73
2021/07/03 17:29:24;;;;;;;2.63;2.43;;;;;;;26.66;40.93;100226.09;4999715;28;20177;-70
2021/07/03 17:31:49;;;;;;;2.33;2.13;;;;;;;26.37;40.70;100214.56;5006593;28;20230;-70
2021/07/03 17:34:15;;;;;;;2.60;2.40;;;;;;;26.42;43.00;100216.88;5005158;28;20534;-72
2021/07/03 17:36:40;;;;;;;2.40;2.20;;;;;;;26.29;42.65;100211.06;5010632;28;20181;-70
2021/07/03 17:39:05;;;;;;;2.60;2.40;;;;;;;26.61;43.85;100220.97;4999909;28;20185;-71
2021/07/03 17:41:31;;;;;;;2.53;2.33;;;;;;;26.76;41.94;100204.69;5003210;28;20214;-71
2021/07/03 17:43:56;;;;;;;2.90;2.40;;;;;;;27.32;42.72;100202.06;4997770;28;20203;-70
2021/07/03 17:46:21;;;;;;;2.67;2.47;;;;;;;27.12;41.94;100208.47;5005144;28;20215;-73
2021/07/03 17:48:47;;;;;;;2.53;2.40;;;;;;;27.39;42.93;100207.53;5011840;28;20184;-73
2021/07/03 17:51:13;;;;;;;2.40;2.20;;;;;;;27.09;42.05;100200.91;5012956;28;20188;-70
2021/07/03 17:53:39;;;;;;;2.67;2.47;;;;;;;27.24;41.52;100209.84;5013094;28;20282;-70
2021/07/03 17:56:04;;;;;;;2.47;2.37;;;;;;;27.15;46.97;100212.41;5012990;28;20649;-70
2021/07/03 17:58:29;;;;;;;2.17;2.07;;;;;;;26.77;47.78;100215.50;5013214;28;20187;-70
2021/07/03 18:00:55;;;;;;;8.00;6.10;;;;;;;26.42;48.79;100211.28;5012705;28;20639;-71
2021/07/03 18:03:20;;;;;;;2.63;2.43;;;;;;;26.19;49.37;100200.81;5012709;28;20531;-70
2021/07/03 18:05:46;;;;;;;20.53;18.10;;;;;;;25.91;52.15;100204.06;5012716;28;20207;-71
2021/07/03 18:08:12;;;;;;;13.77;12.67;;;;;;;25.44;55.21;100212.22;5007462;28;20203;-70
2021/07/03 18:10:39;;;;;;;36.70;31.37;;;;;;;24.96;57.44;100201.94;4999564;28;20263;-70
2021/07/03 18:13:04;;;;;;;8.33;7.67;;;;;;;24.61;58.67;100208.69;4999775;28;20210;-71
2021/07/03 18:15:29;;;;;;;9.40;8.70;;;;;;;24.40;59.89;100206.06;5002387;28;20264;-73
2021/07/03 18:17:55;;;;;;;21.03;19.53;;;;;;;24.22;59.74;100206.19;5012548;28;20177;-71
2021/07/03 18:20:20;;;;;;;14.33;13.23;;;;;;;23.98;61.48;100213.50;5012697;28;20238;-71
2021/07/03 18:22:45;;;;;;;5.73;5.30;;;;;;;23.94;60.40;100209.94;5012503;28;20187;-71
2021/07/03 18:25:11;;;;;;;4.20;3.90;;;;;;;23.93;59.66;100213.94;5012522;28;20261;-73
2021/07/03 18:27:37;;;;;;;2.57;2.47;;;;;;;23.88;59.14;100206.81;5011556;28;20164;-71
2021/07/03 18:30:08;;;;;;;4.67;4.37;;;;;;;23.80;59.75;100204.44;5011867;28;20628;-72
2021/07/03 18:32:33;;;;;;;3.03;2.83;;;;;;;23.55;59.59;100201.75;5012265;28;20184;-71
2021/07/03 18:34:59;;;;;;;2.90;2.70;;;;;;;23.24;61.32;100195.91;5012710;28;20181;-71
2021/07/03 18:37:25;;;;;;;3.57;3.27;;;;;;;22.95;61.53;100202.75;5012621;28;20188;-71
2021/07/03 18:39:50;;;;;;;3.00;2.70;;;;;;;22.63;62.95;100205.56;5012566;28;20647;-73
2021/07/03 18:42:15;;;;;;;2.77;2.57;;;;;;;22.24;64.07;100197.97;5012457;28;20185;-73
2021/07/03 18:44:41;;;;;;;2.80;2.60;;;;;;;21.89;65.07;100195.94;5012520;28;20202;-73
2021/07/03 18:47:06;;;;;;;1.90;1.80;;;;;;;21.61;66.94;100185.53;5012553;28;20177;-78
2021/07/03 18:49:32;;;;;;;2.53;2.43;;;;;;;21.42;68.23;100189.44;5012158;28;20218;-71
2021/07/03 18:51:57;;;;;;;2.83;2.63;;;;;;;21.26;69.83;100189.75;5011675;28;20257;-72
2021/07/03 18:54:22;;;;;;;2.97;2.80;;;;;;;21.14;70.54;100189.28;5012170;28;20187;-72
2021/07/03 18:56:48;;;;;;;3.60;3.30;;;;;;;20.97;69.85;100180.44;5012184;28;20173;-72
2021/07/03 18:59:14;;;;;;;2.43;2.23;;;;;;;20.80;70.00;100179.13;5011863;28;20187;-72
2021/07/03 19:01:39;;;;;;;2.37;2.27;;;;;;;20.59;70.60;100183.75;5011795;28;20172;-72
2021/07/03 19:04:05;;;;;;;3.00;2.63;;;;;;;20.36;71.72;100178.38;5010950;28;20276;-72
2021/07/03 19:06:30;;;;;;;3.10;2.90;;;;;;;20.13;72.39;100184.16;5012076;28;20208;-72
2021/07/03 19:08:56;;;;;;;2.37;2.27;;;;;;;19.92;73.80;100182.75;5012112;28;20236;-71
2021/07/03 19:11:21;;;;;;;2.53;2.33;;;;;;;19.71;74.99;100178.97;5011578;28;20177;-71
2021/07/03 19:13:46;;;;;;;2.63;2.43;;;;;;;19.54;75.87;100189.50;5012127;28;20184;-71
2021/07/03 19:16:13;;;;;;;2.80;2.60;;;;;;;19.44;75.47;100184.56;5011960;28;20220;-74
2021/07/03 19:18:38;;;;;;;3.07;2.87;;;;;;;19.33;75.41;100189.19;5012233;28;20534;-73
2021/07/03 19:21:04;;;;;;;3.50;3.20;;;;;;;19.17;76.50;100191.34;5008022;28;20183;-73
2021/07/03 19:23:33;;;;;;;3.10;2.63;;;;;;;19.00;76.45;100184.41;5007896;28;20618;-73
2021/07/03 19:25:59;;;;;;;3.27;3.07;;;;;;;18.87;77.37;100185.78;5008165;28;20754;-72
2021/07/03 19:28:24;;;;;;;4.20;3.10;;;;;;;18.73;77.68;100186.38;5003230;28;20260;-73
2021/07/03 19:30:50;;;;;;;2.83;2.63;;;;;;;18.55;78.51;100186.09;5007000;28;20273;-73
2021/07/03 19:33:15;;;;;;;2.90;2.70;;;;;;;18.41;79.09;100188.63;4999114;28;20250;-73
2021/07/03 19:35:41;;;;;;;4.57;2.73;;;;;;;18.29;79.30;100197.09;5005883;28;20727;-73
2021/07/03 19:38:06;;;;;;;3.43;3.13;;;;;;;18.21;78.66;100193.41;5004745;28;20176;-73
2021/07/03 19:40:32;;;;;;;2.73;2.53;;;;;;;18.14;78.84;100188.56;5005213;28;20188;-73
2021/07/03 19:42:59;;;;;;;2.97;2.77;;;;;;;18.05;79.11;100187.19;5010796;28;20187;-73
2021/07/03 19:45:24;;;;;;;3.10;2.90;;;;;;;18.03;79.35;100186.78;5011580;28;20204;-73
2021/07/03 19:47:50;;;;;;;2.50;2.33;;;;;;;17.94;79.41;100189.81;5013245;28;20348;-73
2021/07/03 19:50:16;;;;;;;2.57;2.37;;;;;;;17.82;79.25;100199.06;5001786;28;20172;-73
2021/07/03 19:52:42;;;;;;;2.77;2.57;;;;;;;17.72;79.87;100193.31;5011317;28;20218;-73
2021/07/03 19:55:09;;;;;;;3.10;2.90;;;;;;;17.62;79.75;100196.63;5010439;28;20310;-72
2021/07/03 19:57:36;;;;;;;4.90;2.87;;;;;;;17.53;80.41;100196.88;5010937;28;20183;-71
2021/07/03 20:00:07;;;;;;;3.23;3.03;;;;;;;17.46;80.81;100189.22;5009147;28;20177;-72
2021/07/03 20:02:32;;;;;;;3.53;3.00;;;;;;;17.41;80.51;100194.25;5007851;28;20227;-72
2021/07/03 20:04:58;;;;;;;2.67;2.47;;;;;;;17.34;80.86;100188.56;5002846;28;20355;-72
2021/07/03 20:07:23;;;;;;;3.00;2.80;;;;;;;17.29;80.99;100191.63;5003234;28;20648;-71
2021/07/03 20:09:48;;;;;;;2.27;2.17;;;;;;;17.19;81.77;100198.50;4991422;28;20180;-74
2021/07/03 20:12:14;;;;;;;2.77;2.53;;;;;;;17.16;81.15;100196.47;4989164;28;20181;-72
2021/07/03 20:14:39;;;;;;;3.10;2.90;;;;;;;17.24;80.73;100195.50;4990033;28;20195;-71
2021/07/03 20:17:04;;;;;;;2.80;2.60;;;;;;;17.40;81.42;100200.94;4991256;28;20170;-72
2021/07/03 20:19:30;;;;;;;3.20;3.00;;;;;;;17.35;81.21;100212.25;4991267;28;20223;-72
2021/07/03 20:21:56;;;;;;;2.43;2.33;;;;;;;17.30;82.10;100199.56;4991290;28;20637;-72
2021/07/03 20:24:22;;;;;;;2.67;2.40;;;;;;;17.35;82.54;100204.78;4991037;28;20273;-72
2021/07/03 20:26:50;;;;;;;2.87;2.67;;;;;;;17.47;82.38;100203.84;4991333;28;20169;-72
2021/07/03 20:29:17;;;;;;;3.47;2.23;;;;;;;17.48;81.58;100202.66;4991248;28;20307;-72
2021/07/03 20:31:45;;;;;;;2.73;2.53;;;;;;;17.46;80.70;100200.28;4991126;28;20177;-72
2021/07/03 20:34:10;;;;;;;2.97;2.70;;;;;;;17.49;80.07;100204.25;4991196;28;20207;-72
2021/07/03 20:36:35;;;;;;;3.40;3.10;;;;;;;17.48;80.43;100206.22;4991161;28;20181;-72
2021/07/03 20:39:06;;;;;;;3.30;3.10;;;;;;;17.41;81.49;100200.56;4989786;28;20243;-71
2021/07/03 20:41:32;;;;;;;3.97;3.67;;;;;;;17.31;81.96;100201.16;4991339;28;20555;-72
2021/07/03 20:43:57;;;;;;;2.87;2.67;;;;;;;17.16;82.53;100200.03;4991313;28;20188;-72
2021/07/03 20:46:23;;;;;;;3.57;3.27;;;;;;;17.03;82.56;100193.06;4990834;28;20197;-72
2021/07/03 20:48:48;;;;;;;3.50;3.20;;;;;;;17.00;82.89;100204.81;4991373;28;20177;-72
2021/07/03 20:51:14;;;;;;;12.07;10.77;;;;;;;16.90;84.15;100208.13;4991060;28;20534;-72
2021/07/03 20:53:39;;;;;;;3.57;3.27;;;;;;;16.80;84.99;100201.22;4991050;28;20169;-72
2021/07/03 20:56:05;;;;;;;5.53;3.17;;;;;;;16.68;86.09;100206.03;4989676;28;20653;-72
2021/07/03 20:58:30;;;;;;;3.80;3.33;;;;;;;16.55;86.79;100205.31;4989715;28;20664;-72
2021/07/03 21:00:56;;;;;;;3.50;3.20;;;;;;;16.45;87.52;100192.84;4990771;28;20185;-72
2021/07/03 21:03:22;;;;;;;3.53;3.23;;;;;;;16.35;87.71;100207.19;4991092;28;20243;-72
2021/07/03 21:05:48;;;;;;;3.13;2.93;;;;;;;16.27;88.50;100197.13;5002233;28;20278;-72
2021/07/03 21:08:14;;;;;;;3.10;2.80;;;;;;;16.23;89.64;100196.25;5002609;28;20193;-72
2021/07/03 21:10:40;;;;;;;3.90;3.60;;;;;;;16.22;89.12;100205.69;5009536;28;20239;-72
2021/07/03 21:13:05;;;;;;;3.57;3.27;;;;;;;16.22;89.09;100200.19;5002940;28;20181;-72
2021/07/03 21:15:30;;;;;;;3.90;3.60;;;;;;;16.21;89.63;100206.84;4989544;28;20178;-72
2021/07/03 21:17:56;;;;;;;3.90;3.50;;;;;;;16.15;90.28;100199.97;4990861;28;20173;-73
2021/07/03 21:20:21;;;;;;;3.13;2.93;;;;;;;16.11;90.63;100201.84;4997986;28;20197;-72
2021/07/03 21:22:48;;;;;;;3.30;3.10;;;;;;;16.10;90.20;100192.78;5004971;28;20191;-76
2021/07/03 21:25:17;;;;;;;3.40;3.20;;;;;;;16.07;89.88;100196.25;5011876;28;20212;-73
2021/07/03 21:27:42;;;;;;;3.63;3.33;;;;;;;16.10;90.14;100201.06;4994371;28;20465;-73
2021/07/03 21:30:10;;;;;;;3.50;3.20;;;;;;;16.15;89.65;100194.47;4998792;28;20191;-73
2021/07/03 21:32:38;;;;;;;3.40;3.20;;;;;;;16.26;89.41;100193.59;5006725;28;20184;-73
2021/07/03 21:35:04;;;;;;;3.60;3.30;;;;;;;16.42;89.75;100195.53;5013924;28;20176;-73
2021/07/03 21:37:30;;;;;;;3.60;3.30;;;;;;;16.62;89.12;100188.91;4999339;28;20177;-73
2021/07/03 21:39:55;;;;;;;3.13;2.83;;;;;;;16.79;88.07;100196.06;4994148;28;20601;-72
2021/07/03 21:42:21;;;;;;;3.20;2.97;;;;;;;16.83;88.04;100194.19;4991221;28;20177;-73